Terminal Aerodrome Forecast
Issued by NWS

Home | Current Version | Previous Version | Text Only | Print | Product List | Glossary On
Versions: 1 2 3 4 5 6 7 8 9 10 11 12 13 14 15 16 17 18 19 20 21 22 23 24 25
000
FTUS41 KGYX 311739
TAFLEB
TAF
KLEB 311739Z 3118/0118 34014G24KT P6SM SCT200
      TEMPO 3118/3122 4SM BLSN
     FM312200 35008KT P6SM SKC
     FM010400 VRB03KT P6SM SKC=

USA.gov is the U.S. government's official web portal to all federal, state and local government web resources and services.